createdAt,value
2019-05-12T00:01:29.122Z,99.90
2019-05-12T00:04:00.252Z,99.90
2019-05-12T00:06:31.530Z,99.90
2019-05-12T00:09:03.447Z,99.90
2019-05-12T00:11:34.938Z,99.90
2019-05-12T00:14:08.463Z,99.90
2019-05-12T00:16:38.935Z,99.90
2019-05-12T00:19:10.614Z,99.90
2019-05-12T00:21:41.786Z,99.90
2019-05-12T00:24:13.521Z,99.90
2019-05-12T00:26:44.890Z,99.90
2019-05-12T00:29:18.219Z,99.90
2019-05-12T00:31:49.071Z,99.90
2019-05-12T00:34:20.224Z,99.90
2019-05-12T00:36:51.758Z,99.90
2019-05-12T00:39:23.066Z,99.90
2019-05-12T00:41:52.823Z,99.90
2019-05-12T00:44:28.429Z,99.90
2019-05-12T00:47:00.159Z,99.90
2019-05-12T00:49:32.711Z,99.90
2019-05-12T00:52:03.949Z,99.90
2019-05-12T00:54:37.460Z,99.90
2019-05-12T00:57:08.393Z,99.90
2019-05-12T00:59:39.811Z,99.90
2019-05-12T01:02:11.050Z,99.90
2019-05-12T01:04:42.710Z,99.90
2019-05-12T01:07:14.302Z,99.90
2019-05-12T01:09:45.816Z,99.90
2019-05-12T01:12:18.105Z,99.90
2019-05-12T01:14:49.522Z,99.90
2019-05-12T01:17:21.118Z,99.90
2019-05-12T01:19:52.660Z,99.90
2019-05-12T01:22:23.755Z,99.90
2019-05-12T01:24:54.940Z,99.90
2019-05-12T01:27:28.628Z,99.90
2019-05-12T01:29:59.191Z,99.90
2019-05-12T01:32:39.237Z,99.90
2019-05-12T01:35:12.599Z,99.90
2019-05-12T01:37:43.895Z,99.90
2019-05-12T01:40:18.897Z,99.90
2019-05-12T01:42:50.057Z,99.90
2019-05-12T01:45:21.335Z,99.90
2019-05-12T01:47:53.065Z,99.90
2019-05-12T01:50:24.610Z,99.90
2019-05-12T01:52:58.399Z,99.90
2019-05-12T01:55:29.360Z,99.90
2019-05-12T01:58:00.600Z,99.90
2019-05-12T02:00:32.829Z,99.90
2019-05-12T02:03:04.066Z,99.90
2019-05-12T02:05:38.096Z,99.90
2019-05-12T02:08:15.105Z,99.90
2019-05-12T02:10:48.102Z,99.90
2019-05-12T02:13:19.331Z,99.90
2019-05-12T02:15:50.668Z,99.90
2019-05-12T02:18:21.836Z,99.90
2019-05-12T02:20:52.897Z,99.90
2019-05-12T02:23:23.990Z,99.90
2019-05-12T02:25:55.121Z,99.90
2019-05-12T02:28:28.624Z,99.90
2019-05-12T02:30:59.382Z,99.90
2019-05-12T02:33:30.728Z,99.90
2019-05-12T02:36:04.743Z,99.90
2019-05-12T02:38:34.835Z,99.90
2019-05-12T02:41:06.320Z,99.90
2019-05-12T02:43:38.069Z,99.90
2019-05-12T02:46:09.152Z,99.90
2019-05-12T02:48:40.619Z,99.90
2019-05-12T02:51:15.572Z,99.90
2019-05-12T02:53:47.382Z,99.90
2019-05-12T02:56:20.962Z,99.90
2019-05-12T02:58:54.359Z,99.90
2019-05-12T03:01:28.606Z,99.90
2019-05-12T03:04:05.670Z,99.90
2019-05-12T03:06:38.108Z,99.90
2019-05-12T03:09:09.774Z,99.90
2019-05-12T03:11:44.916Z,99.90
2019-05-12T03:14:16.156Z,99.90
2019-05-12T03:16:47.754Z,99.90
2019-05-12T03:19:19.096Z,99.90
2019-05-12T03:21:50.495Z,99.90
2019-05-12T03:24:24.926Z,99.90
2019-05-12T03:26:55.664Z,99.90
2019-05-12T03:29:26.739Z,99.90
2019-05-12T03:31:57.945Z,99.90
2019-05-12T03:34:29.915Z,99.90
2019-05-12T03:37:07.093Z,99.90
2019-05-12T03:39:34.481Z,99.90
2019-05-12T03:42:05.997Z,99.90
2019-05-12T03:44:37.169Z,99.90
2019-05-12T03:47:08.428Z,99.90
2019-05-12T03:49:39.455Z,99.90
2019-05-12T03:52:10.651Z,99.90
2019-05-12T03:54:44.945Z,99.90
2019-05-12T03:57:15.286Z,99.90
2019-05-12T03:59:46.471Z,99.90
2019-05-12T04:02:17.670Z,99.90
2019-05-12T04:04:48.909Z,99.90
2019-05-12T04:07:20.122Z,99.90
2019-05-12T04:09:53.933Z,99.90
2019-05-12T04:12:25.629Z,99.90
2019-05-12T04:14:57.272Z,99.90
2019-05-12T04:17:28.753Z,99.90
2019-05-12T04:20:00.347Z,99.90
2019-05-12T04:22:31.437Z,99.90
2019-05-12T04:25:05.767Z,99.90
2019-05-12T04:27:35.775Z,99.90
2019-05-12T04:30:07.907Z,99.90
2019-05-12T04:32:39.278Z,99.90
2019-05-12T04:35:10.953Z,99.90
2019-05-12T04:37:44.948Z,99.90
2019-05-12T04:40:15.555Z,99.90
2019-05-12T04:42:46.681Z,99.90
2019-05-12T04:45:17.972Z,99.90
2019-05-12T04:47:49.095Z,99.90
2019-05-12T04:50:20.332Z,99.90
2019-05-12T04:52:54.895Z,99.90
2019-05-12T04:55:25.924Z,99.90
2019-05-12T04:57:57.152Z,99.90
2019-05-12T05:00:29.071Z,99.90
2019-05-12T05:03:00.904Z,99.90
2019-05-12T05:05:35.339Z,99.90
2019-05-12T05:08:05.642Z,99.90
2019-05-12T05:10:36.993Z,99.90
2019-05-12T05:13:08.541Z,99.90
2019-05-12T05:15:39.827Z,99.90
2019-05-12T05:18:12.993Z,99.90
2019-05-12T05:20:44.223Z,99.90
2019-05-12T05:23:15.780Z,99.90
2019-05-12T05:25:46.836Z,99.90
2019-05-12T05:28:18.371Z,99.90
2019-05-12T05:30:49.620Z,99.90
2019-05-12T05:33:23.851Z,99.90
2019-05-12T05:35:54.841Z,99.90
2019-05-12T05:38:26.041Z,99.90
2019-05-12T05:40:59.726Z,99.90
2019-05-12T05:43:30.346Z,99.90
2019-05-12T05:46:07.637Z,99.90
2019-05-12T05:48:35.410Z,99.90
2019-05-12T05:51:09.043Z,99.90
2019-05-12T05:53:39.752Z,99.90
2019-05-12T05:56:11.578Z,99.90
2019-05-12T05:58:47.180Z,99.90
2019-05-12T06:01:16.387Z,99.90
2019-05-12T06:03:47.915Z,99.90
2019-05-12T06:06:19.417Z,99.90
2019-05-12T06:09:00.382Z,99.90
2019-05-12T06:11:31.598Z,99.90
2019-05-12T06:14:11.083Z,99.90
2019-05-12T06:16:35.734Z,99.90
2019-05-12T06:19:07.236Z,99.90
2019-05-12T06:21:38.599Z,99.90
2019-05-12T06:24:15.795Z,99.90
2019-05-12T06:26:56.708Z,99.90
2019-05-12T06:29:20.670Z,99.90
2019-05-12T06:31:50.451Z,99.90
2019-05-12T06:34:23.731Z,99.90
2019-05-12T06:36:57.329Z,99.90
2019-05-12T06:39:27.719Z,99.90
2019-05-12T06:42:12.354Z,99.90
2019-05-12T06:44:35.244Z,99.90
2019-05-12T06:47:08.287Z,99.90
2019-05-12T06:49:39.327Z,99.90
2019-05-12T06:52:10.488Z,99.90
2019-05-12T06:54:50.781Z,99.90
2019-05-12T06:57:22.104Z,99.90
2019-05-12T06:59:51.165Z,99.90
2019-05-12T07:02:21.172Z,99.90
2019-05-12T07:04:57.314Z,99.90
2019-05-12T07:07:27.607Z,99.90
2019-05-12T07:10:10.607Z,99.90
2019-05-12T07:12:36.657Z,99.90
2019-05-12T07:15:05.537Z,99.90
2019-05-12T07:17:49.816Z,99.90
2019-05-12T07:20:23.887Z,99.90
2019-05-12T07:22:54.797Z,99.90
2019-05-12T07:25:31.126Z,99.90
2019-05-12T07:28:01.528Z,99.90
2019-05-12T07:30:35.180Z,99.90
2019-05-12T07:33:07.115Z,99.90
2019-05-12T07:35:40.394Z,99.90
2019-05-12T07:38:21.127Z,99.90
2019-05-12T07:40:50.761Z,99.90
2019-05-12T07:43:24.317Z,99.90
2019-05-12T07:46:02.280Z,99.90
2019-05-12T07:48:30.400Z,99.90
2019-05-12T07:51:01.583Z,99.90
2019-05-12T07:53:33.856Z,99.90
2019-05-12T07:56:05.254Z,99.90
2019-05-12T07:58:40.929Z,99.90
2019-05-12T08:01:10.162Z,99.90
2019-05-12T08:03:43.642Z,99.90
2019-05-12T08:06:15.011Z,99.90
2019-05-12T08:08:50.919Z,99.90
2019-05-12T08:11:19.184Z,99.90
2019-05-12T08:13:50.374Z,99.90
2019-05-12T08:16:25.633Z,99.90
2019-05-12T08:18:54.918Z,99.90
2019-05-12T08:21:26.175Z,99.90
2019-05-12T08:23:57.341Z,99.90
2019-05-12T08:26:28.607Z,99.90
2019-05-12T08:29:01.156Z,99.90
2019-05-12T08:31:40.153Z,99.90
2019-05-12T08:34:05.730Z,99.90
2019-05-12T08:36:36.854Z,99.90
2019-05-12T08:39:11.777Z,99.90
2019-05-12T08:41:44.433Z,99.90
2019-05-12T08:44:17.470Z,99.90
2019-05-12T08:46:51.945Z,99.90
2019-05-12T08:49:23.462Z,99.90
2019-05-12T08:51:55.800Z,99.90
2019-05-12T08:54:27.405Z,99.90
2019-05-12T08:57:01.092Z,99.90
2019-05-12T08:59:31.443Z,99.90
2019-05-12T09:02:07.297Z,99.90
2019-05-12T09:04:35.556Z,99.90
2019-05-12T09:07:07.017Z,99.90
2019-05-12T09:09:38.290Z,99.90
2019-05-12T09:12:09.629Z,99.90
2019-05-12T09:14:45.458Z,99.90
2019-05-12T09:17:13.925Z,99.90
2019-05-12T09:19:44.884Z,99.90
2019-05-12T09:22:20.711Z,99.90
2019-05-12T09:24:49.477Z,99.90
2019-05-12T09:27:20.969Z,99.90
2019-05-12T09:29:54.000Z,99.90
2019-05-12T09:32:24.801Z,99.90
2019-05-12T09:34:58.159Z,99.90
2019-05-12T09:37:30.980Z,99.90
2019-05-12T09:40:04.636Z,99.90
2019-05-12T09:42:36.322Z,99.90
2019-05-12T09:45:10.444Z,99.90
2019-05-12T09:47:43.478Z,99.90
2019-05-12T09:50:19.965Z,99.90
2019-05-12T09:52:52.495Z,99.90
2019-05-12T09:55:22.818Z,99.90
2019-05-12T09:57:54.467Z,99.90
2019-05-12T10:00:30.365Z,99.90
2019-05-12T10:03:00.662Z,99.90
2019-05-12T10:05:37.687Z,99.90
2019-05-12T10:08:05.652Z,99.90
2019-05-12T10:10:40.200Z,99.90
2019-05-12T10:13:10.647Z,99.90
2019-05-12T10:15:42.012Z,99.90
2019-05-12T10:18:14.305Z,99.90
2019-05-12T10:20:45.711Z,99.90
2019-05-12T10:23:21.554Z,99.90
2019-05-12T10:25:53.806Z,99.90
2019-05-12T10:28:25.289Z,99.90
2019-05-12T10:30:57.079Z,99.90
2019-05-12T10:33:28.306Z,99.90
2019-05-12T10:36:05.291Z,99.90
2019-05-12T10:38:34.393Z,99.90
2019-05-12T10:41:07.820Z,99.90
2019-05-12T10:43:39.396Z,99.90
2019-05-12T10:46:13.066Z,99.90
2019-05-12T10:48:44.647Z,99.90
2019-05-12T10:51:15.851Z,99.90
2019-05-12T10:53:48.776Z,99.90
2019-05-12T10:56:20.881Z,99.90
2019-05-12T10:58:53.523Z,99.90
2019-05-12T11:01:25.068Z,99.90
2019-05-12T11:03:56.278Z,99.90
2019-05-12T11:06:27.764Z,99.90
2019-05-12T11:08:58.820Z,99.90
2019-05-12T11:11:32.928Z,99.90
2019-05-12T11:14:03.999Z,99.90
2019-05-12T11:16:36.600Z,99.90
2019-05-12T11:19:10.473Z,99.90
2019-05-12T11:21:41.195Z,99.90
2019-05-12T11:24:13.838Z,99.90
2019-05-12T11:26:45.205Z,99.90
2019-05-12T11:29:16.406Z,99.90
2019-05-12T11:31:47.997Z,99.90
2019-05-12T11:34:19.268Z,99.50
2019-05-12T11:36:50.477Z,98.90
2019-05-12T11:39:23.611Z,98.90
2019-05-12T11:41:55.446Z,98.70
2019-05-12T11:44:26.860Z,99.00
2019-05-12T11:46:58.083Z,98.60
2019-05-12T11:49:29.690Z,97.60
2019-05-12T11:52:07.340Z,97.80
2019-05-12T11:54:34.520Z,95.80
2019-05-12T11:57:05.758Z,94.40
2019-05-12T11:59:36.959Z,94.10
2019-05-12T12:02:08.249Z,90.60
2019-05-12T12:04:48.410Z,91.80
2019-05-12T12:07:19.633Z,89.90
2019-05-12T12:09:56.242Z,91.40
2019-05-12T12:12:24.278Z,92.00
2019-05-12T12:14:55.398Z,91.40
2019-05-12T12:17:31.224Z,91.30
2019-05-12T12:20:00.093Z,90.00
2019-05-12T12:22:34.470Z,88.90
2019-05-12T12:25:10.745Z,89.00
2019-05-12T12:27:38.684Z,84.70
2019-05-12T12:30:16.793Z,83.00
2019-05-12T12:32:44.381Z,84.00
2019-05-12T12:35:15.714Z,85.00
2019-05-12T12:37:46.989Z,85.40
2019-05-12T12:40:18.278Z,87.90
2019-05-12T12:42:49.621Z,89.80
2019-05-12T12:45:43.412Z,87.90
2019-05-12T12:48:19.427Z,85.90
2019-05-12T12:50:49.409Z,83.80
2019-05-12T12:53:20.742Z,85.40
2019-05-12T12:55:53.785Z,85.80
2019-05-12T12:58:26.969Z,86.50
2019-05-12T13:00:58.056Z,85.50
2019-05-12T13:03:30.015Z,80.20
2019-05-12T13:06:01.475Z,80.50
2019-05-12T13:08:34.238Z,80.90
2019-05-12T13:11:05.890Z,81.70
2019-05-12T13:13:37.238Z,81.00
2019-05-12T13:16:08.453Z,81.20
2019-05-12T13:18:40.001Z,81.90
2019-05-12T13:21:11.283Z,81.80
2019-05-12T13:23:45.246Z,82.40
2019-05-12T13:26:15.732Z,80.70
2019-05-12T13:28:53.436Z,80.10
2019-05-12T13:31:20.277Z,78.60
2019-05-12T13:33:54.920Z,80.70
2019-05-12T13:36:29.582Z,80.50
2019-05-12T13:38:58.046Z,79.00
2019-05-12T13:41:29.645Z,77.40
2019-05-12T13:44:01.164Z,79.60
2019-05-12T13:46:34.448Z,80.30
2019-05-12T13:49:05.762Z,81.70
2019-05-12T13:51:37.056Z,81.10
2019-05-12T13:54:08.447Z,79.50
2019-05-12T13:56:39.689Z,76.90
2019-05-12T13:59:12.244Z,79.60
2019-05-12T14:01:45.815Z,80.40
2019-05-12T14:04:16.878Z,82.30
2019-05-12T14:06:48.553Z,80.90
2019-05-12T14:09:19.855Z,81.30
2019-05-12T14:11:51.056Z,82.10
2019-05-12T14:14:23.780Z,79.90
2019-05-12T14:16:59.433Z,81.00
2019-05-12T14:19:30.381Z,81.90
2019-05-12T14:22:03.560Z,82.80
2019-05-12T14:24:41.874Z,80.60
2019-05-12T14:27:07.551Z,81.70
2019-05-12T14:29:39.277Z,81.90
2019-05-12T14:32:12.239Z,83.00
2019-05-12T14:34:43.491Z,81.40
2019-05-12T14:37:17.128Z,80.90
2019-05-12T14:39:50.237Z,81.20
2019-05-12T14:42:26.131Z,80.90
2019-05-12T14:44:54.149Z,81.80
2019-05-12T14:47:30.098Z,83.10
2019-05-12T14:49:59.069Z,82.90
2019-05-12T14:52:30.377Z,83.80
2019-05-12T14:55:03.391Z,84.00
2019-05-12T14:57:39.238Z,83.30
2019-05-12T15:00:11.133Z,81.30
2019-05-12T15:02:43.809Z,82.60
2019-05-12T15:05:16.473Z,82.30
2019-05-12T15:07:54.357Z,83.30
2019-05-12T15:10:23.338Z,82.70
2019-05-12T15:12:54.383Z,82.30
2019-05-12T15:15:25.685Z,83.40
2019-05-12T15:18:03.561Z,84.10
2019-05-12T15:20:30.225Z,83.80
2019-05-12T15:23:03.724Z,83.90
2019-05-12T15:25:35.328Z,84.20
2019-05-12T15:28:07.570Z,84.50
2019-05-12T15:30:38.794Z,84.10
2019-05-12T15:33:10.421Z,84.00
2019-05-12T15:35:43.978Z,84.60
2019-05-12T15:38:16.636Z,85.50
2019-05-12T15:40:48.555Z,85.10
2019-05-12T15:43:20.107Z,85.10
2019-05-12T15:45:55.305Z,85.30
2019-05-12T15:48:26.163Z,84.60
2019-05-12T15:50:59.352Z,85.30
2019-05-12T15:53:30.115Z,84.90
2019-05-12T15:56:05.779Z,85.30
2019-05-12T15:58:34.326Z,85.70
2019-05-12T16:01:06.119Z,87.00
2019-05-12T16:03:37.621Z,87.50
2019-05-12T16:06:11.771Z,87.60
2019-05-12T16:08:42.689Z,86.10
2019-05-12T16:11:14.150Z,85.10
2019-05-12T16:13:53.904Z,85.70
2019-05-12T16:16:18.334Z,86.20
2019-05-12T16:18:50.777Z,88.00
2019-05-12T16:21:22.340Z,87.80
2019-05-12T16:23:56.743Z,86.20
2019-05-12T16:26:26.915Z,85.80
2019-05-12T16:29:05.347Z,86.40
2019-05-12T16:31:31.137Z,86.10
2019-05-12T16:34:05.865Z,86.40
2019-05-12T16:36:35.918Z,87.00
2019-05-12T16:39:08.881Z,86.90
2019-05-12T16:41:40.802Z,87.50
2019-05-12T16:44:20.774Z,88.00
2019-05-12T16:46:45.216Z,88.10
2019-05-12T16:49:16.496Z,88.30
2019-05-12T16:51:48.699Z,88.80
2019-05-12T16:54:24.007Z,88.40
2019-05-12T16:56:54.625Z,87.70
2019-05-12T16:59:26.146Z,86.00
2019-05-12T17:01:59.431Z,85.90
2019-05-12T17:04:30.530Z,86.20
2019-05-12T17:07:01.917Z,86.20
2019-05-12T17:09:33.562Z,86.30
2019-05-12T17:12:05.230Z,86.50
2019-05-12T17:14:48.058Z,86.70
2019-05-12T17:17:11.026Z,87.20
2019-05-12T17:19:43.425Z,87.00
2019-05-12T17:22:17.482Z,87.70
2019-05-12T17:24:47.868Z,87.40
2019-05-12T17:27:24.356Z,86.70
2019-05-12T17:29:54.061Z,87.20
2019-05-12T17:32:25.085Z,87.50
2019-05-12T17:34:56.744Z,88.10
2019-05-12T17:37:31.491Z,88.50
2019-05-12T17:40:03.724Z,87.50
2019-05-12T17:42:35.204Z,87.80
2019-05-12T17:45:09.409Z,87.00
2019-05-12T17:47:41.149Z,86.70
2019-05-12T17:50:13.687Z,86.00
2019-05-12T17:52:50.281Z,86.20
2019-05-12T17:55:18.678Z,84.70
2019-05-12T17:57:50.235Z,85.00
2019-05-12T18:00:23.671Z,85.60
2019-05-12T18:03:14.214Z,85.90
2019-05-12T18:05:28.456Z,86.00
2019-05-12T18:08:00.112Z,85.70
2019-05-12T18:10:32.538Z,85.80
2019-05-12T18:13:04.552Z,86.00
2019-05-12T18:15:37.960Z,85.90
2019-05-12T18:18:09.359Z,86.30
2019-05-12T18:20:44.540Z,86.70
2019-05-12T18:23:19.739Z,86.80
2019-05-12T18:25:49.236Z,87.20
2019-05-12T18:28:21.695Z,87.30
2019-05-12T18:30:53.900Z,87.50
2019-05-12T18:33:33.302Z,88.60
2019-05-12T18:36:00.319Z,88.00
2019-05-12T18:38:32.848Z,88.20
2019-05-12T18:41:04.659Z,88.30
2019-05-12T18:43:36.133Z,88.80
2019-05-12T18:46:09.265Z,88.80
2019-05-12T18:48:40.596Z,88.90
2019-05-12T18:51:17.016Z,88.90
2019-05-12T18:53:45.247Z,89.20
2019-05-12T18:56:21.607Z,88.60
2019-05-12T18:58:49.303Z,88.60
2019-05-12T19:01:20.607Z,89.00
2019-05-12T19:03:54.593Z,89.30
2019-05-12T19:06:25.574Z,89.10
2019-05-12T19:08:56.774Z,88.90
2019-05-12T19:11:37.395Z,89.00
2019-05-12T19:14:01.021Z,88.10
2019-05-12T19:16:32.710Z,87.80
2019-05-12T19:19:04.501Z,87.80
2019-05-12T19:21:36.194Z,87.80
2019-05-12T19:24:08.847Z,87.40
2019-05-12T19:26:40.472Z,87.50
2019-05-12T19:29:14.123Z,88.00
2019-05-12T19:31:52.320Z,87.80
2019-05-12T19:34:22.885Z,88.00
2019-05-12T19:36:51.890Z,88.40
2019-05-12T19:39:25.328Z,88.70
2019-05-12T19:41:57.863Z,88.80
2019-05-12T19:44:30.811Z,89.10
2019-05-12T19:47:03.161Z,89.30
2019-05-12T19:49:46.659Z,89.30
2019-05-12T19:52:07.985Z,89.50
2019-05-12T19:54:39.296Z,89.90
2019-05-12T19:57:15.155Z,89.70
2019-05-12T19:59:50.535Z,90.00
2019-05-12T20:02:17.037Z,90.00
2019-05-12T20:04:52.003Z,90.10
2019-05-12T20:07:23.370Z,90.10
2019-05-12T20:10:00.212Z,90.40
2019-05-12T20:12:27.836Z,90.60
2019-05-12T20:14:59.353Z,90.70
2019-05-12T20:17:30.840Z,91.00
2019-05-12T20:20:04.482Z,91.20
2019-05-12T20:22:36.298Z,91.30
2019-05-12T20:25:08.091Z,91.50
2019-05-12T20:27:39.667Z,91.60
2019-05-12T20:30:16.872Z,91.80
2019-05-12T20:32:44.414Z,91.90
2019-05-12T20:35:15.706Z,91.90
2019-05-12T20:37:52.934Z,92.10
2019-05-12T20:40:19.902Z,92.20
2019-05-12T20:43:07.253Z,92.20
2019-05-12T20:45:25.915Z,92.30
2019-05-12T20:47:56.782Z,92.10
2019-05-12T20:50:33.045Z,92.40
2019-05-12T20:53:01.110Z,92.30
2019-05-12T20:55:39.445Z,92.40
2019-05-12T20:58:05.244Z,92.40
2019-05-12T21:00:38.898Z,92.40
2019-05-12T21:03:09.791Z,92.30
2019-05-12T21:05:40.972Z,92.60
2019-05-12T21:08:15.115Z,92.50
2019-05-12T21:10:45.076Z,92.60
2019-05-12T21:13:20.419Z,92.70
2019-05-12T21:15:53.748Z,92.80
2019-05-12T21:18:24.041Z,93.00
2019-05-12T21:20:55.596Z,93.00
2019-05-12T21:23:26.982Z,93.10
2019-05-12T21:25:58.597Z,93.20
2019-05-12T21:28:29.810Z,93.30
2019-05-12T21:31:03.499Z,93.20
2019-05-12T21:33:39.558Z,93.40
2019-05-12T21:36:07.287Z,93.40
2019-05-12T21:38:38.841Z,93.50
2019-05-12T21:41:10.241Z,93.50
2019-05-12T21:43:43.758Z,93.50
2019-05-12T21:46:15.702Z,93.60
2019-05-12T21:48:47.336Z,93.60
2019-05-12T21:51:20.126Z,93.60
2019-05-12T21:53:56.215Z,93.80
2019-05-12T21:56:24.551Z,93.70
2019-05-12T21:58:58.150Z,93.80
2019-05-12T22:01:28.808Z,94.00
2019-05-12T22:04:02.551Z,93.90
2019-05-12T22:06:34.151Z,94.00
2019-05-12T22:09:07.332Z,94.20
2019-05-12T22:11:42.291Z,94.30
2019-05-12T22:14:13.684Z,94.30
2019-05-12T22:16:47.726Z,94.60
2019-05-12T22:19:19.234Z,94.50
2019-05-12T22:21:50.558Z,94.70
2019-05-12T22:24:25.203Z,94.80
2019-05-12T22:26:55.331Z,94.80
2019-05-12T22:29:31.064Z,95.10
2019-05-12T22:32:00.052Z,95.10
2019-05-12T22:34:40.310Z,95.10
2019-05-12T22:37:04.238Z,95.10
2019-05-12T22:39:35.543Z,95.20
2019-05-12T22:42:11.674Z,95.30
2019-05-12T22:44:39.720Z,95.20
2019-05-12T22:47:13.645Z,95.40
2019-05-12T22:49:44.401Z,95.50
2019-05-12T22:52:17.407Z,95.60
2019-05-12T22:54:51.038Z,95.70
2019-05-12T22:57:24.234Z,95.70
2019-05-12T22:59:55.664Z,95.70
2019-05-12T23:02:29.954Z,96.00
2019-05-12T23:05:00.037Z,96.00
2019-05-12T23:07:33.054Z,96.00
2019-05-12T23:10:06.999Z,96.00
2019-05-12T23:12:37.444Z,96.00
2019-05-12T23:15:09.689Z,96.20
2019-05-12T23:17:45.268Z,96.20
2019-05-12T23:20:14.746Z,96.60
2019-05-12T23:22:45.993Z,96.30
2019-05-12T23:25:21.353Z,96.40
2019-05-12T23:27:50.362Z,96.50
2019-05-12T23:30:24.029Z,96.60
2019-05-12T23:32:54.780Z,96.60
2019-05-12T23:35:28.282Z,96.60
2019-05-12T23:37:58.777Z,96.60
2019-05-12T23:40:30.119Z,96.70
2019-05-12T23:43:03.824Z,96.90
2019-05-12T23:45:34.294Z,96.90
2019-05-12T23:48:05.467Z,97.00
2019-05-12T23:50:36.667Z,97.00
2019-05-12T23:53:07.807Z,97.20
2019-05-12T23:55:39.107Z,97.20
2019-05-12T23:58:10.312Z,97.40
